createdAt,value
2022-10-25T00:02:23.828Z,7.50
2022-10-25T00:04:51.395Z,4.50
2022-10-25T00:07:18.855Z,7.55
2022-10-25T00:09:46.138Z,9.20
2022-10-25T00:12:14.203Z,9.30
2022-10-25T00:14:41.460Z,9.35
2022-10-25T00:17:09.388Z,8.25
2022-10-25T00:19:36.783Z,6.35
2022-10-25T00:22:04.033Z,9.90
2022-10-25T00:24:31.391Z,8.55
2022-10-25T00:26:59.465Z,7.75
2022-10-25T00:29:26.915Z,11.65
2022-10-25T00:31:54.257Z,11.32
2022-10-25T00:34:22.552Z,10.25
2022-10-25T00:36:49.890Z,10.55
2022-10-25T00:39:17.296Z,9.88
2022-10-25T00:41:44.660Z,7.82
2022-10-25T00:44:36.851Z,8.30
2022-10-25T00:47:44.871Z,8.30
2022-10-25T00:50:52.211Z,8.50
2022-10-25T00:53:34.805Z,12.05
2022-10-25T00:56:21.863Z,6.15
2022-10-25T00:58:58.564Z,6.00
2022-10-25T01:01:26.492Z,9.55
2022-10-25T01:04:01.238Z,6.03
2022-10-25T01:07:02.346Z,8.55
2022-10-25T01:09:36.157Z,7.85
2022-10-25T01:12:04.324Z,9.57
2022-10-25T01:14:34.972Z,6.85
2022-10-25T01:21:07.338Z,7.65
2022-10-25T01:23:52.547Z,10.35
2022-10-25T01:27:18.840Z,7.38
2022-10-25T01:30:31.319Z,5.55
2022-10-25T01:33:40.305Z,6.03
2022-10-25T01:37:18.611Z,9.80
2022-10-25T01:40:42.448Z,8.23
2022-10-25T01:44:02.814Z,11.23
2022-10-25T01:46:47.249Z,6.32
2022-10-25T01:49:56.612Z,6.32
2022-10-25T01:52:25.594Z,7.25
2022-10-25T01:54:52.960Z,13.38
2022-10-25T01:57:49.537Z,7.72
2022-10-25T02:00:23.591Z,10.20
2022-10-25T02:03:33.903Z,9.55
2022-10-25T02:06:57.717Z,14.75
2022-10-25T02:10:01.185Z,8.73
2022-10-25T02:13:07.523Z,9.48
2022-10-25T02:16:04.738Z,8.13
2022-10-25T02:18:41.361Z,11.43
2022-10-25T02:21:12.533Z,10.27
2022-10-25T02:23:40.993Z,13.45
2022-10-25T02:26:10.946Z,11.70
2022-10-25T02:28:42.115Z,10.43
2022-10-25T02:31:17.400Z,15.27
2022-10-25T02:33:47.684Z,11.13
2022-10-25T02:36:24.144Z,10.02
2022-10-25T02:38:53.532Z,10.00
2022-10-25T02:41:22.921Z,17.08
2022-10-25T02:43:50.208Z,11.13
2022-10-25T02:46:23.041Z,12.95
2022-10-25T02:48:51.892Z,6.47
2022-10-25T02:51:19.570Z,8.40
2022-10-25T02:53:48.344Z,9.73
2022-10-25T02:56:22.699Z,10.75
2022-10-25T02:58:55.333Z,9.25
2022-10-25T03:01:23.358Z,11.13
2022-10-25T03:03:51.219Z,7.60
2022-10-25T03:06:18.729Z,9.27
2022-10-25T03:08:46.366Z,12.10
2022-10-25T03:11:16.931Z,8.18
2022-10-25T03:13:50.099Z,9.07
2022-10-25T03:16:17.376Z,8.82
2022-10-25T03:18:44.772Z,14.73
2022-10-25T03:21:12.836Z,9.98
2022-10-25T03:23:40.097Z,13.63
2022-10-25T03:26:07.424Z,8.05
2022-10-25T03:28:34.710Z,13.68
2022-10-25T03:31:02.034Z,14.75
2022-10-25T03:36:17.694Z,15.38
2022-10-25T03:38:45.143Z,17.13
2022-10-25T03:41:12.531Z,13.68
2022-10-25T03:43:39.861Z,15.70
2022-10-25T03:46:07.483Z,18.38
2022-10-25T03:48:34.979Z,13.75
2022-10-25T03:51:02.224Z,15.82
2022-10-25T03:53:29.512Z,19.27
2022-10-25T03:55:56.827Z,19.02
2022-10-25T03:58:24.111Z,15.82
2022-10-25T04:00:51.462Z,16.65
2022-10-25T04:03:18.764Z,15.85
2022-10-25T04:05:46.024Z,13.18
2022-10-25T04:08:13.404Z,12.68
2022-10-25T04:10:40.701Z,22.42
2022-10-25T04:13:08.084Z,16.42
2022-10-25T04:15:37.108Z,15.93
2022-10-25T04:18:04.474Z,23.75
2022-10-25T04:20:33.070Z,17.38
2022-10-25T04:23:00.381Z,20.35
2022-10-25T04:25:29.099Z,20.50
2022-10-25T04:28:00.430Z,13.82
2022-10-25T04:30:27.758Z,14.70
2022-10-25T04:32:56.553Z,16.40
2022-10-25T04:35:24.969Z,19.02
2022-10-25T04:37:52.873Z,17.98
2022-10-25T04:40:23.952Z,19.67
2022-10-25T04:42:52.226Z,20.15
2022-10-25T04:45:19.584Z,17.80
2022-10-25T04:47:47.009Z,21.23
2022-10-25T04:50:14.438Z,18.55
2022-10-25T04:52:41.735Z,14.35
2022-10-25T04:55:09.437Z,14.40
2022-10-25T04:57:36.780Z,15.98
2022-10-25T05:00:05.448Z,16.02
2022-10-25T05:02:32.788Z,16.85
2022-10-25T05:05:00.127Z,13.27
2022-10-25T05:07:27.424Z,14.95
2022-10-25T05:09:54.952Z,14.13
2022-10-25T05:12:23.912Z,16.70
2022-10-25T05:14:51.170Z,15.48
2022-10-25T05:17:20.337Z,15.70
2022-10-25T05:19:47.612Z,16.45
2022-10-25T05:22:15.019Z,15.60
2022-10-25T05:24:42.288Z,14.32
2022-10-25T05:27:09.575Z,14.05
2022-10-25T05:29:36.881Z,16.08
2022-10-25T05:32:04.247Z,18.05
2022-10-25T05:34:31.508Z,19.27
2022-10-25T05:36:59.008Z,18.35
2022-10-25T05:39:26.611Z,17.83
2022-10-25T05:41:54.733Z,18.17
2022-10-25T05:44:22.100Z,20.65
2022-10-25T05:46:49.482Z,21.85
2022-10-25T05:49:17.581Z,25.20
2022-10-25T05:51:44.848Z,20.10
2022-10-25T05:54:15.937Z,18.83
2022-10-25T05:56:43.785Z,23.77
2022-10-25T05:59:15.084Z,24.27
2022-10-25T06:01:46.585Z,27.52
2022-10-25T06:04:15.698Z,22.25
2022-10-25T06:06:46.877Z,20.38
2022-10-25T06:09:14.853Z,23.98
2022-10-25T06:11:42.152Z,25.42
2022-10-25T06:14:11.158Z,24.58
2022-10-25T06:16:39.040Z,22.05
2022-10-25T06:19:10.020Z,21.05
2022-10-25T06:21:37.668Z,21.98
2022-10-25T06:24:05.501Z,20.13
2022-10-25T06:26:33.059Z,26.38
2022-10-25T06:29:05.996Z,20.38
2022-10-25T06:31:33.940Z,20.55
2022-10-25T06:34:02.917Z,27.08
2022-10-25T06:36:31.783Z,23.52
2022-10-25T06:39:05.608Z,24.13
2022-10-25T06:41:37.138Z,22.92
2022-10-25T06:44:07.134Z,21.75
2022-10-25T06:49:27.297Z,18.75
2022-10-25T06:51:55.556Z,15.07
2022-10-25T06:54:22.895Z,18.25
2022-10-25T06:56:50.181Z,16.08
2022-10-25T06:59:17.937Z,19.45
2022-10-25T07:01:45.311Z,16.52
2022-10-25T07:04:13.206Z,19.38
2022-10-25T07:06:41.279Z,16.92
2022-10-25T07:09:10.202Z,16.27
2022-10-25T07:11:38.240Z,14.05
2022-10-25T07:14:09.483Z,13.88
2022-10-25T07:16:39.856Z,13.02
2022-10-25T07:19:10.086Z,12.43
2022-10-25T07:21:45.108Z,14.32
2022-10-25T07:24:13.425Z,12.63
2022-10-25T07:26:40.795Z,14.00
2022-10-25T07:29:08.403Z,12.75
2022-10-25T07:31:43.084Z,12.10
2022-10-25T07:34:15.220Z,14.38
2022-10-25T07:36:43.636Z,11.68
2022-10-25T07:39:10.948Z,12.55
2022-10-25T07:41:38.300Z,13.27
2022-10-25T07:44:05.748Z,12.65
2022-10-25T07:46:33.002Z,13.68
2022-10-25T07:49:00.289Z,13.18
2022-10-25T07:51:27.571Z,13.73
2022-10-25T07:53:54.877Z,12.80
2022-10-25T07:56:35.347Z,11.25
2022-10-25T07:59:08.649Z,10.55
2022-10-25T08:01:49.858Z,13.52
2022-10-25T08:04:41.774Z,9.80
2022-10-25T08:07:25.040Z,9.98
2022-10-25T08:10:01.240Z,15.60
2022-10-25T08:12:44.774Z,13.88
2022-10-25T08:15:26.355Z,10.25
2022-10-25T08:18:19.584Z,10.98
2022-10-25T08:21:27.494Z,13.98
2022-10-25T08:24:17.100Z,8.82
2022-10-25T08:27:02.611Z,7.53
2022-10-25T08:29:40.999Z,8.77
2022-10-25T08:35:32.127Z,13.43
2022-10-25T08:38:26.775Z,10.50
2022-10-25T08:41:33.217Z,7.82
2022-10-25T08:44:54.274Z,8.68
2022-10-25T08:47:52.802Z,7.15
2022-10-25T08:50:47.685Z,8.95
2022-10-25T08:53:36.818Z,8.55
2022-10-25T08:56:16.054Z,9.57
2022-10-25T08:59:02.348Z,9.50
2022-10-25T09:01:49.533Z,8.23
2022-10-25T09:04:17.065Z,12.95
2022-10-25T09:07:28.164Z,10.68
2022-10-25T09:10:30.934Z,6.18
2022-10-25T09:13:40.278Z,8.05
2022-10-25T09:17:01.723Z,7.43
2022-10-25T09:20:25.834Z,6.75
2022-10-25T09:23:28.300Z,7.30
2022-10-25T09:26:37.781Z,7.72
2022-10-25T09:29:42.805Z,5.80
2022-10-25T09:32:28.460Z,6.93
2022-10-25T09:34:57.906Z,6.25
2022-10-25T09:38:00.029Z,9.13
2022-10-25T09:40:52.973Z,6.63
2022-10-25T09:43:49.079Z,6.20
2022-10-25T09:46:59.975Z,8.02
2022-10-25T09:49:56.773Z,5.18
2022-10-25T09:53:11.705Z,7.35
2022-10-25T09:56:00.271Z,4.45
2022-10-25T09:58:42.852Z,7.50
2022-10-25T10:01:27.833Z,8.93
2022-10-25T10:04:21.569Z,8.27
2022-10-25T10:06:52.115Z,7.00
2022-10-25T10:11:48.768Z,4.93
2022-10-25T10:15:00.856Z,4.95
2022-10-25T10:17:30.972Z,8.75
2022-10-25T10:20:19.139Z,2.47
2022-10-25T10:22:54.056Z,6.00
2022-10-25T10:25:28.792Z,5.50
2022-10-25T10:27:58.996Z,6.80
2022-10-25T10:30:30.935Z,4.40
2022-10-25T10:33:03.249Z,3.40
2022-10-25T10:35:37.916Z,5.38
2022-10-25T10:38:30.205Z,5.80
2022-10-25T10:41:29.312Z,6.60
2022-10-25T10:44:15.151Z,4.05
2022-10-25T10:46:47.465Z,4.10
2022-10-25T10:49:16.129Z,3.55
2022-10-25T10:51:45.730Z,4.38
2022-10-25T10:54:29.836Z,6.30
2022-10-25T10:57:02.861Z,8.93
2022-10-25T10:59:52.860Z,3.92
2022-10-25T11:02:41.832Z,6.78
2022-10-25T11:05:37.862Z,4.60
2022-10-25T11:08:08.049Z,3.42
2022-10-25T11:10:38.287Z,6.13
2022-10-25T11:13:18.675Z,6.57
2022-10-25T11:19:44.005Z,5.55
2022-10-25T11:23:11.034Z,4.93
2022-10-25T11:26:13.171Z,3.67
2022-10-25T11:29:34.756Z,7.07
2022-10-25T11:36:08.235Z,4.45
2022-10-25T11:39:35.340Z,6.07
2022-10-25T11:42:37.012Z,4.82
2022-10-25T11:45:46.931Z,7.38
2022-10-25T11:49:11.785Z,4.45
2022-10-25T11:52:34.326Z,6.20
2022-10-25T11:56:04.462Z,4.63
2022-10-25T11:59:18.501Z,5.57
2022-10-25T12:02:22.278Z,4.20
2022-10-25T12:05:38.698Z,4.60
2022-10-25T12:08:47.033Z,4.97
2022-10-25T12:11:42.064Z,8.88
2022-10-25T12:14:21.822Z,5.80
2022-10-25T12:16:50.105Z,2.90
2022-10-25T12:19:28.036Z,5.30
2022-10-25T12:22:13.539Z,2.63
2022-10-25T12:25:05.240Z,6.07
2022-10-25T12:27:34.710Z,3.95
2022-10-25T12:30:18.824Z,3.67
2022-10-25T12:33:02.592Z,6.13
2022-10-25T12:35:42.684Z,4.13
2022-10-25T12:38:33.033Z,3.97
2022-10-25T12:45:33.047Z,4.13
2022-10-25T12:48:56.350Z,3.13
2022-10-25T12:51:58.200Z,6.75
2022-10-25T12:55:32.275Z,2.80
2022-10-25T12:58:37.680Z,6.72
2022-10-25T13:01:46.234Z,3.17
2022-10-25T13:05:11.629Z,1.77
2022-10-25T13:07:40.958Z,2.63
2022-10-25T13:10:23.886Z,4.53
2022-10-25T13:13:22.080Z,3.28
2022-10-25T13:16:01.381Z,6.05
2022-10-25T13:18:48.100Z,3.15
2022-10-25T13:21:53.297Z,4.95
2022-10-25T13:24:45.504Z,4.80
2022-10-25T13:27:15.592Z,6.47
2022-10-25T13:30:07.551Z,4.60
2022-10-25T13:32:43.763Z,6.47
2022-10-25T13:35:19.953Z,1.88
2022-10-25T13:38:25.676Z,3.78
2022-10-25T13:41:19.362Z,6.88
2022-10-25T13:44:05.189Z,3.80
2022-10-25T13:46:41.973Z,7.75
2022-10-25T13:49:42.603Z,5.65
2022-10-25T13:52:33.431Z,4.78
2022-10-25T13:55:10.139Z,3.78
2022-10-25T13:57:59.238Z,6.22
2022-10-25T14:00:33.013Z,5.32
2022-10-25T14:03:09.850Z,2.47
2022-10-25T14:05:55.759Z,5.78
2022-10-25T14:08:43.576Z,7.03
2022-10-25T14:11:33.176Z,4.32
2022-10-25T14:14:27.221Z,5.45
2022-10-25T14:17:18.741Z,3.50
2022-10-25T14:19:54.831Z,2.25
2022-10-25T14:22:46.427Z,4.20
2022-10-25T14:25:48.765Z,2.40
2022-10-25T14:28:32.034Z,5.07
2022-10-25T14:31:14.043Z,4.05
2022-10-25T14:33:54.058Z,4.00
2022-10-25T14:36:36.744Z,4.00
2022-10-25T14:39:19.974Z,4.25
2022-10-25T14:42:00.528Z,5.82
2022-10-25T14:44:45.977Z,4.82
2022-10-25T14:47:33.850Z,4.78
2022-10-25T14:50:02.510Z,2.60
2022-10-25T14:52:31.652Z,4.18
2022-10-25T14:55:05.724Z,2.97
2022-10-25T14:57:34.651Z,2.38
2022-10-25T15:00:06.325Z,3.58
2022-10-25T15:02:37.768Z,2.42
2022-10-25T15:05:07.200Z,2.55
2022-10-25T15:07:47.123Z,3.05
2022-10-25T15:10:43.508Z,1.75
2022-10-25T15:13:41.800Z,3.70
2022-10-25T15:16:40.977Z,4.60
2022-10-25T15:19:20.751Z,2.35
2022-10-25T15:22:04.917Z,2.92
2022-10-25T15:24:46.708Z,7.25
2022-10-25T15:27:40.293Z,4.60
2022-10-25T15:30:37.037Z,7.07
2022-10-25T15:33:15.571Z,3.20
2022-10-25T15:35:58.722Z,4.20
2022-10-25T15:39:01.834Z,5.03
2022-10-25T15:41:24.833Z,4.20
2022-10-25T15:43:53.017Z,2.45
2022-10-25T15:46:34.343Z,3.28
2022-10-25T15:49:09.019Z,3.35
2022-10-25T15:51:42.689Z,6.13
2022-10-25T15:54:23.727Z,4.57
2022-10-25T15:56:52.013Z,6.85
2022-10-25T15:59:19.304Z,5.05
2022-10-25T16:01:52.326Z,6.18
2022-10-25T16:04:20.324Z,4.93
2022-10-25T16:06:48.093Z,3.17
2022-10-25T16:09:17.282Z,2.70
2022-10-25T16:11:51.626Z,4.00
2022-10-25T16:14:25.323Z,5.15
2022-10-25T16:16:52.807Z,3.85
2022-10-25T16:19:22.007Z,3.95
2022-10-25T16:21:49.597Z,5.32
2022-10-25T16:24:16.881Z,5.07
2022-10-25T16:26:49.300Z,5.03
2022-10-25T16:29:26.367Z,5.18
2022-10-25T16:31:54.276Z,5.72
2022-10-25T16:34:22.005Z,3.78
2022-10-25T16:36:52.798Z,4.88
2022-10-25T16:39:20.112Z,4.38
2022-10-25T16:41:48.347Z,6.60
2022-10-25T16:44:20.306Z,5.22
2022-10-25T16:46:48.048Z,4.45
2022-10-25T16:49:15.320Z,8.10
2022-10-25T16:51:44.233Z,9.00
2022-10-25T16:54:12.709Z,4.90
2022-10-25T16:56:40.016Z,5.28
2022-10-25T16:59:07.876Z,3.80
2022-10-25T17:01:39.016Z,7.25
2022-10-25T17:04:10.406Z,8.65
2022-10-25T17:06:42.190Z,9.23
2022-10-25T17:09:11.248Z,6.53
2022-10-25T17:11:38.624Z,5.90
2022-10-25T17:14:06.497Z,6.05
2022-10-25T17:16:34.558Z,4.95
2022-10-25T17:19:03.904Z,5.63
2022-10-25T17:21:33.230Z,4.15
2022-10-25T17:24:00.641Z,3.58
2022-10-25T17:26:28.397Z,4.43
2022-10-25T17:28:57.615Z,6.45
2022-10-25T17:31:25.274Z,4.07
2022-10-25T17:33:52.539Z,5.68
2022-10-25T17:36:20.963Z,4.35
2022-10-25T17:38:48.485Z,6.80
2022-10-25T17:41:15.841Z,4.75
2022-10-25T17:43:43.253Z,5.85
2022-10-25T17:46:25.500Z,4.68
2022-10-25T17:49:03.712Z,7.40
2022-10-25T17:51:35.200Z,2.85
2022-10-25T17:54:02.661Z,5.05
2022-10-25T17:59:17.243Z,6.60
2022-10-25T18:01:44.692Z,3.95
2022-10-25T18:04:12.008Z,8.90
2022-10-25T18:06:39.645Z,3.75
2022-10-25T18:09:06.952Z,6.80
2022-10-25T18:11:34.234Z,4.15
2022-10-25T18:14:02.175Z,10.98
2022-10-25T18:16:31.124Z,4.70
2022-10-25T18:19:03.908Z,1.95
2022-10-25T18:21:33.324Z,5.22
2022-10-25T18:24:04.969Z,6.63
2022-10-25T18:26:34.836Z,6.28
2022-10-25T18:29:02.323Z,5.15
2022-10-25T18:31:30.663Z,4.15
2022-10-25T18:34:03.435Z,7.80
2022-10-25T18:36:32.633Z,6.75
2022-10-25T18:39:00.447Z,6.90
2022-10-25T18:41:34.089Z,10.23
2022-10-25T18:44:02.928Z,6.85
2022-10-25T18:46:31.890Z,5.85
2022-10-25T18:48:59.512Z,6.30
2022-10-25T18:51:28.957Z,5.25
2022-10-25T18:54:02.721Z,10.60
2022-10-25T18:56:31.000Z,4.75
2022-10-25T18:58:59.164Z,6.15
2022-10-25T19:01:32.130Z,6.57
2022-10-25T19:04:03.544Z,8.30
2022-10-25T19:06:32.772Z,4.20
2022-10-25T19:09:02.859Z,7.10
2022-10-25T19:11:30.539Z,4.93
2022-10-25T19:13:58.067Z,4.05
2022-10-25T19:16:25.660Z,7.30
2022-10-25T19:18:53.219Z,8.57
2022-10-25T19:21:20.513Z,4.68
2022-10-25T19:23:48.260Z,6.22
2022-10-25T19:26:20.687Z,6.85
2022-10-25T19:28:54.320Z,4.88
2022-10-25T19:31:21.653Z,5.55
2022-10-25T19:33:52.673Z,2.72
2022-10-25T19:36:20.679Z,6.22
2022-10-25T19:38:50.669Z,7.60
2022-10-25T19:41:23.471Z,6.78
2022-10-25T19:43:51.733Z,7.93
2022-10-25T19:46:19.644Z,6.43
2022-10-25T19:48:46.983Z,7.35
2022-10-25T19:51:19.797Z,9.25
2022-10-25T19:53:47.647Z,7.55
2022-10-25T19:56:23.722Z,6.10
2022-10-25T19:58:51.689Z,6.13
2022-10-25T20:01:28.615Z,7.53
2022-10-25T20:03:58.316Z,7.95
2022-10-25T20:06:31.566Z,8.10
2022-10-25T20:09:01.878Z,8.20
2022-10-25T20:11:29.758Z,7.57
2022-10-25T20:14:01.017Z,8.30
2022-10-25T20:16:29.643Z,8.85
2022-10-25T20:19:00.872Z,8.65
2022-10-25T20:21:36.823Z,6.88
2022-10-25T20:24:09.252Z,5.75
2022-10-25T20:26:41.243Z,6.65
2022-10-25T20:29:22.817Z,8.00
2022-10-25T20:31:52.398Z,6.85
2022-10-25T20:34:20.852Z,5.57
2022-10-25T20:36:49.050Z,7.47
2022-10-25T20:39:16.714Z,10.32
2022-10-25T20:41:46.735Z,8.40
2022-10-25T20:44:14.729Z,15.10
2022-10-25T20:46:42.275Z,6.82
2022-10-25T20:49:09.532Z,6.05
2022-10-25T20:51:37.980Z,6.07
2022-10-25T20:54:09.384Z,5.18
2022-10-25T20:56:37.358Z,4.57
2022-10-25T20:59:05.295Z,4.80
2022-10-25T21:01:32.696Z,9.55
2022-10-25T21:04:00.155Z,4.32
2022-10-25T21:06:27.433Z,10.43
2022-10-25T21:08:54.701Z,9.32
2022-10-25T21:11:22.048Z,7.90
2022-10-25T21:13:49.358Z,7.75
2022-10-25T21:16:17.355Z,5.53
2022-10-25T21:18:45.475Z,4.60
2022-10-25T21:21:19.813Z,8.55
2022-10-25T21:23:48.127Z,5.28
2022-10-25T21:26:15.780Z,7.10
2022-10-25T21:28:43.443Z,5.95
2022-10-25T21:31:15.539Z,4.72
2022-10-25T21:33:49.899Z,9.90
2022-10-25T21:36:20.557Z,6.45
2022-10-25T21:38:48.184Z,5.72
2022-10-25T21:41:26.787Z,7.43
2022-10-25T21:43:57.553Z,6.93
2022-10-25T21:46:27.713Z,6.78
2022-10-25T21:48:55.185Z,10.85
2022-10-25T21:51:24.455Z,11.45
2022-10-25T21:56:31.432Z,7.78
2022-10-25T21:59:00.236Z,9.05
2022-10-25T22:01:30.787Z,5.20
2022-10-25T22:03:58.428Z,6.38
2022-10-25T22:06:27.401Z,5.15
2022-10-25T22:08:56.309Z,3.55
2022-10-25T22:11:30.587Z,6.72
2022-10-25T22:14:03.449Z,6.88
2022-10-25T22:16:33.005Z,12.63
2022-10-25T22:19:12.283Z,7.38
2022-10-25T22:21:41.099Z,6.50
2022-10-25T22:24:11.764Z,5.85
2022-10-25T22:26:43.107Z,9.27
2022-10-25T22:29:13.803Z,9.18
2022-10-25T22:31:41.598Z,5.82
2022-10-25T22:34:10.726Z,6.32
2022-10-25T22:36:42.264Z,10.10
2022-10-25T22:39:10.161Z,5.25
2022-10-25T22:41:37.584Z,4.65
2022-10-25T22:44:05.966Z,5.57
2022-10-25T22:46:36.337Z,6.95
2022-10-25T22:49:09.248Z,6.80
2022-10-25T22:51:38.715Z,9.43
2022-10-25T22:54:06.339Z,8.65
2022-10-25T22:56:34.589Z,4.22
2022-10-25T22:59:05.544Z,10.25
2022-10-25T23:01:39.197Z,9.32
2022-10-25T23:04:09.602Z,4.85
2022-10-25T23:09:11.052Z,7.88
2022-10-25T23:11:41.267Z,4.78
2022-10-25T23:14:13.411Z,4.68
2022-10-25T23:16:43.912Z,7.57
2022-10-25T23:19:11.209Z,5.43
2022-10-25T23:21:38.471Z,6.80
2022-10-25T23:24:07.212Z,4.82
2022-10-25T23:26:36.679Z,5.22
2022-10-25T23:29:05.025Z,5.05
2022-10-25T23:31:33.030Z,7.50
2022-10-25T23:34:01.874Z,13.52
2022-10-25T23:36:37.780Z,5.22
2022-10-25T23:39:07.717Z,4.55
2022-10-25T23:41:35.004Z,5.45
2022-10-25T23:44:02.454Z,5.78
2022-10-25T23:46:32.498Z,6.50
2022-10-25T23:48:59.760Z,8.27
2022-10-25T23:51:27.017Z,9.23
2022-10-25T23:53:54.264Z,5.55
2022-10-25T23:56:21.536Z,4.05
2022-10-25T23:58:53.395Z,4.50
